Terminal Aerodrome Forecast
Issued by NWS Hastings, NE

Home | Current Version | Previous Version | Text Only | Print | Product List | Glossary On
Versions: 1 2 3 4 5 6 7 8 9 10 11 12 13 14 15 16 17 18 19 20 21 22 23 24 25 26 27 28 29 30 31 32
000
FTUS43 KGID 140535
TAFGRI
TAF
KGRI 140535Z 1406/1506 VRB06KT P6SM VCTS SCT050CB BKN100
      TEMPO 1406/1410 5SM -TSRA BR BKN050CB OVC100
     FM141200 02010KT P6SM SCT080 BKN100
     FM141500 36015G20KT P6SM SCT100
     FM150200 33005KT P6SM SKC=

USA.gov is the U.S. government's official web portal to all federal, state and local government web resources and services.